Deerfield, South Dakota
Current Conditions -  °F | °C
As of 12:53 AM on Monday 22 Dec 2014 (Local Time) from KCUT Reporting Station
Overcast Overcast  
Wind Chill: 25°   Ceiling: 3000
Heat Index: 32°   Visibility: 10mi
Dew Point: 24°   Wind: 8mph
Humidity: 73%   Direction: 300°WNW
Pressure: 29.51"   Gusts: NA
Location:  43.9317°N, 103.745°W
Report Text: KCUT 220753Z AUTO 30007KT 10SM BKN030 OVC037 00/M04 A2951 RMK AO2 SLP991 T00001044
Loading
Personal Weather Stations






























Interactive Weather Map New forecast layout! Learn more

10-Day Weather Forecast

Advertisements
Track Severe Weather on mobile